Flight Track Log - Related Links

Times and Time Zones

All times are in EDT time to prevent confusion due to time zone crossing. See the BJS439 flight status page for this flight to view local times or setup timezone preferences in your user account.

Time Position Orientation Groundspeed Altitude Reporting Facility
EDT Latitude Longitude Course Direction KTS MPH feet Rate Location/Type
Fri 05:04:07 PM 40.0786 -83.0550 77° East 169 194 1,500  Level Indianapolis Center
Fri 05:04:56 PM 40.0883 -83.0017 77° East 213 245 3,100 2,656 Climbing Indianapolis Center
Fri 05:06:09 PM 40.1453 -82.9181 48° Northeast 255 293 6,900 2,800 Climbing Indianapolis Center
Fri 05:07:11 PM 40.1442 -82.8175 91° East 284 327 9,400 3,194 Climbing Indianapolis Center
Fri 05:08:13 PM 40.1322 -82.7053 98° East 303 349 13,500 4,065 Climbing Indianapolis Center
Fri 05:09:15 PM 40.1056 -82.5739 105° East 359 413 17,800 3,726 Climbing Indianapolis Center
Fri 05:10:17 PM 40.0703 -82.4311 108° East 397 457 21,200 2,516 Climbing Indianapolis Center
Fri 05:11:19 PM 40.0425 -82.2711 103° East 459 528 23,000 2,468 Climbing Indianapolis Center
Fri 05:12:21 PM 40.0478 -82.0969 88° East 477 549 26,300 2,928 Climbing Indianapolis Center
Fri 05:13:24 PM 40.0436 -81.9194 92° East 485 558 29,100 2,496 Climbing Indianapolis Center
Fri 05:14:26 PM 40.0394 -81.7075 91° East 504 580 31,500 1,887 Climbing Indianapolis Center
Fri 05:15:28 PM 40.0433 -81.5178 88° East 519 597 33,000 726 Climbing Indianapolis Center
Fri 05:16:30 PM 40.1006 -81.3400 67° East 531 611 33,000  Level Indianapolis Center
Fri 05:17:32 PM 40.1694 -81.1700 62° Northeast 528 608 33,000 390 Level Indianapolis Center
Fri 05:18:33 PM 40.2414 -80.9911 62° Northeast 521 600 33,800 1,388 Climbing Cleveland Center
Fri 05:19:33 PM 40.3086 -80.8228 62° Northeast 521 600 35,800 2,050 Climbing Cleveland Center
Fri 05:20:33 PM 40.3736 -80.6539 63° Northeast 516 594 37,900 1,950 Climbing Cleveland Center
Fri 05:21:33 PM 40.4361 -80.4958 63° Northeast 506 582 39,700 1,600 Climbing Cleveland Center
Fri 05:22:33 PM 40.4964 -80.3400 63° Northeast 489 563 41,100 1,200 Climbing Cleveland Center
Fri 05:23:33 PM 40.5542 -80.1814 64° Northeast 482 555 42,100 850 Climbing Cleveland Center
Fri 05:24:33 PM 40.6161 -80.0250 62° Northeast 476 548 42,800 650 Climbing Cleveland Center
Fri 05:25:33 PM 40.6778 -79.8658 63° Northeast 476 548 43,400 550 Climbing Cleveland Center
Fri 05:26:33 PM 40.7411 -79.6953 64° Northeast 476 548 43,900 500 Climbing Cleveland Center
Fri 05:27:33 PM 40.8025 -79.5325 63° Northeast 476 548 44,400 550 Climbing Cleveland Center
Fri 05:28:33 PM 40.8633 -79.3722 63° Northeast 476 548 45,000 300 Climbing Cleveland Center
Fri 05:29:33 PM 40.9219 -79.2119 64° Northeast 471 542 45,000  Level Cleveland Center
Fri 05:30:33 PM 40.9825 -79.0483 64° Northeast 476 548 45,000  Level Cleveland Center
Fri 05:31:33 PM 41.0428 -78.8844 64° Northeast 482 555 45,000  Level Cleveland Center
Fri 05:32:33 PM 41.1047 -78.7203 63° Northeast 482 555 45,000  Level Cleveland Center
Fri 05:33:33 PM 41.1625 -78.5586 65° Northeast 487 560 45,000  Level Cleveland Center
Fri 05:34:33 PM 41.2219 -78.3967 64° Northeast 487 560 45,000  Level Cleveland Center
Fri 05:34:52 PM 41.2383 -78.3425 68° East 498 573 45,000  Level New York Center
Fri 05:35:52 PM 41.2983 -78.1808 64° Northeast 498 573 45,000  Level New York Center
Fri 05:36:53 PM 41.3542 -78.0211 65° Northeast 492 566 45,000  Level New York Center
Fri 05:37:53 PM 41.4119 -77.8583 65° Northeast 487 560 45,000  Level New York Center
Fri 05:38:54 PM 41.4664 -77.7119 64° Northeast 487 560 45,000  Level New York Center
Fri 05:39:54 PM 41.5217 -77.5486 66° East 487 560 45,000  Level New York Center
Fri 05:41:00 PM 41.5660 -77.3856 70° East  Level FlightAware Approximate
Fri 05:41:53 PM 41.6356 -77.2269 70° East 487 560 45,000  Level New York Center
Fri 05:44:40 PM 41.7994 -76.7489 65° Northeast 482 555 45,000  Level Boston Center
Fri 05:45:40 PM 41.8556 -76.5797 66° East 490 564 45,000  Level Boston Center
Fri 05:46:40 PM 41.9139 -76.4106 65° Northeast 490 564 45,000  Level Boston Center
Fri 05:47:40 PM 41.9697 -76.2464 65° Northeast 490 564 45,000  Level Boston Center
Fri 05:48:40 PM 42.0253 -76.0764 66° East 488 562 45,000  Level Boston Center
Fri 05:49:52 PM 42.0828 -75.9064 65° Northeast 497 572 45,000  Level Boston Center
Fri 05:50:52 PM 42.1450 -75.7081 67° East 492 566 45,000 -150 Level Boston Center
Fri 05:51:52 PM 42.1731 -75.5217 78° East 492 566 44,700 -600 Descending Boston Center
Fri 05:52:52 PM 42.1944 -75.3406 81° East 492 566 43,800 -950 Descending Boston Center
Fri 05:53:52 PM 42.2178 -75.1539 80° East 492 566 42,800 -1,000 Descending Boston Center
Fri 05:54:52 PM 42.2339 -74.9975 82° East 486 559 41,800 -2,800 Descending Boston Center
Fri 05:55:52 PM 42.2572 -74.7964 81° East 485 558 37,200 -5,250 Descending Boston Center
Fri 05:56:52 PM 42.2794 -74.6206 80° East 485 558 31,300 -4,100 Descending Boston Center
Fri 05:57:52 PM 42.2994 -74.4414 81° East 485 558 29,000 -1,150 Descending Boston Center
Fri 05:58:52 PM 42.3233 -74.2486 80° East 498 573 29,000 -450 Level Boston Center
Fri 05:59:52 PM 42.3431 -74.0636 82° East 503 579 28,100 -500 Descending Boston Center
Fri 06:00:52 PM 42.3642 -73.8758 81° East 503 579 28,000 -50 Descending Boston Center
Fri 06:01:52 PM 42.3853 -73.6881 81° East 503 579 28,000 -700 Level Boston Center
Fri 06:02:52 PM 42.4039 -73.5028 82° East 498 573 26,600 -1,950 Descending Boston Center
Fri 06:03:52 PM 42.4219 -73.3175 82° East 498 573 24,100 -1,300 Descending Boston Center
Fri 06:04:52 PM 42.4419 -73.1322 82° East 496 571 24,000 -50 Descending Boston Center
Fri 06:05:52 PM 42.4617 -72.9522 81° East 489 563 24,000  Level Boston Center
Fri 06:06:52 PM 42.4792 -72.7722 82° East 489 563 24,000 -300 Level Boston Center
Fri 06:07:52 PM 42.4961 -72.5950 83° East 479 551 23,400 -2,050 Descending Boston Center
Fri 06:08:52 PM 42.4983 -72.4175 89° East 471 542 19,900 -3,050 Descending Boston Center
Fri 06:09:52 PM 42.5003 -72.2794 89° East 442 509 17,300 -3,250 Descending Boston Center
Fri 06:10:52 PM 42.5000 -72.0994 90° East 431 496 13,400 -3,600 Descending Boston Center
Fri 06:11:52 PM 42.4994 -71.9783 90° East 390 449 10,100 -2,700 Descending Boston Center
Fri 06:12:52 PM 42.5031 -71.8514 88° East 318 366 8,000 -1,950 Descending Boston Center
Fri 06:13:52 PM 42.5025 -71.7558 90° East 286 329 6,200 -1,950 Descending Boston Center
Fri 06:14:52 PM 42.4956 -71.6489 95° East 262 302 4,100 -1,553 Descending Boston Center
Fri 06:15:17 PM 42.5000 -71.6000 83° East 242 278 4,000 -424 Descending KA90
Fri 06:16:17 PM 42.5000 -71.5333 90° East 198 228 3,500 -700 Descending KA90
Fri 06:17:17 PM 42.4833 -71.4667 109° East 193 222 2,600 -950 Descending KA90
Fri 06:18:17 PM 42.4833 -71.4000 90° East 177 204 1,600 -900 Descending KA90
Fri 06:19:17 PM 42.4833 -71.3333 90° East 129 148 800 1,703 Descending KA90
Fri 06:20:52 PM 42.4694 -71.2747 108° East 131 151 6,000 2,013 Climbing Boston Center
Fri 06:21:52 PM 42.4647 -71.2242 97° East 131 151 6,000  Level Boston Center
Fri 06:22:52 PM 42.4581 -71.1767 101° East 131 151 6,000  Level Boston Center
Fri 06:23:52 PM 42.4533 -71.1261 97° East 131 151 6,000  Level Boston Center
Fri 06:24:52 PM 42.4511 -71.1175 109° East 131 151 6,000  Level Boston Center
Fri 06:25:52 PM 42.4511 -71.1175 360° North 131 151 6,000  Level Boston Center
Fri 06:28:00 PM 42.4667 -71.2833 278° West  Level FlightAware Approximate
Fri 06:35:00 PM 42.4699 -71.2890 278° West  Level Estimated
Fri 06:36:00 PM 42.4667 -71.2833 278° West  Level FlightAware Approximate

Login

Don't have an account? Register now (free) for customized features, flight alerts, and more!